Time;durP1;ratioP1;P1;durP2;ratioP2;P2;SDS_P1;SDS_P2;PMS_P1;PMS_P2;Temp;Humidity;BMP_temperature;BMP_pressure;BME280_temperature;BME280_humidity;BME280_pressure;Samples;Min_cycle;Max_cycle;Signal;HPM_P1;HPM_P2
2022/02/10 00:20:57;;;;;;;10.00;3.70;;;0.30;99.90;;;;;;5068665;28;20226;-72
2022/02/10 00:36:29;;;;;;;6.28;2.92;;;0.10;99.90;;;;;;5071988;28;20203;-72
2022/02/10 00:40:07;;;;;;;11.07;3.10;;;0.00;99.90;;;;;;5072053;28;20172;-72
2022/02/10 00:41:50;;;;;;;7.68;3.75;;;0.00;99.90;;;;;;5075553;28;20235;-74
2022/02/10 00:44:16;;;;;;;10.55;4.28;;;-0.10;99.90;;;;;;5077780;28;20160;-72
2022/02/10 00:46:42;;;;;;;9.55;3.83;;;-0.10;99.90;;;;;;5092080;28;20167;-74
2022/02/10 00:49:08;;;;;;;9.23;3.85;;;-0.10;99.90;;;;;;5091829;28;20609;-74
2022/02/10 00:51:35;;;;;;;7.28;3.85;;;-0.10;99.90;;;;;;5091670;28;20214;-73
2022/02/10 00:54:02;;;;;;;6.78;3.65;;;-0.10;99.90;;;;;;5091691;28;20182;-73
2022/02/10 00:56:28;;;;;;;7.53;3.33;;;0.00;99.90;;;;;;5091780;28;20213;-73
2022/02/10 00:59:09;;;;;;;9.73;3.63;;;0.00;99.90;;;;;;5091642;28;20156;-73
2022/02/10 01:07:12;;;;;;;6.53;3.58;;;-0.30;99.90;;;;;;5091522;28;20206;-72
2022/02/10 01:29:35;;;;;;;7.00;3.20;;;-0.30;99.90;;;;;;5071103;28;20166;-72
2022/02/10 01:30:10;;;;;;;4.15;1.83;;;-0.30;99.90;;;;;;5070813;28;20239;-71
2022/02/10 01:32:36;;;;;;;9.65;3.60;;;-0.40;99.90;;;;;;5070915;28;20703;-71
2022/02/10 01:35:05;;;;;;;3.50;2.60;;;-0.50;99.90;;;;;;5070633;28;20149;-71
2022/02/10 01:37:31;;;;;;;5.70;3.33;;;-0.50;99.90;;;;;;5071078;28;20294;-72
2022/02/10 01:40:07;;;;;;;4.43;1.90;;;-0.60;99.90;;;;;;5070676;28;20196;-72
2022/02/10 02:04:19;;;;;;;3.92;2.05;;;-0.60;99.90;;;;;;5070383;28;20522;-70
2022/02/10 02:06:47;;;;;;;3.42;1.83;;;-0.70;99.90;;;;;;5070277;28;20161;-72
2022/02/10 02:09:15;;;;;;;8.13;3.10;;;-0.80;99.90;;;;;;5069017;28;20176;-71
2022/02/10 02:11:46;;;;;;;4.93;1.98;;;-0.80;99.90;;;;;;5070044;28;20201;-71
2022/02/10 02:14:19;;;;;;;6.63;1.85;;;-0.80;99.90;;;;;;5070171;28;20168;-71
2022/02/10 02:16:49;;;;;;;5.72;2.55;;;-0.80;99.90;;;;;;5082606;28;20191;-71
2022/02/10 02:19:15;;;;;;;8.30;3.08;;;-0.70;99.90;;;;;;5076411;28;20168;-72
2022/02/10 02:21:41;;;;;;;6.85;3.15;;;-0.70;99.90;;;;;;5069872;28;20596;-72
2022/02/10 02:24:19;;;;;;;3.35;2.50;;;-0.70;99.90;;;;;;5070022;28;20164;-71
2022/02/10 02:26:48;;;;;;;4.22;3.35;;;-0.60;99.90;;;;;;5069900;28;20149;-72
2022/02/10 02:29:16;;;;;;;6.05;2.95;;;-0.60;99.90;;;;;;5069881;28;20167;-72
2022/02/10 02:31:48;;;;;;;4.78;2.78;;;-0.40;99.90;;;;;;5069546;28;20200;-72
2022/02/10 02:39:45;;;;;;;4.82;3.35;;;-0.20;99.90;;;;;;5069826;28;20153;-69
2022/02/10 03:06:39;;;;;;;4.10;2.70;;;-0.90;99.90;;;;;;5089557;28;20163;-70
2022/02/10 03:09:12;;;;;;;6.20;3.15;;;-1.00;99.90;;;;;;5088083;28;20190;-70
2022/02/10 03:11:42;;;;;;;4.97;3.25;;;-0.90;99.90;;;;;;5089140;28;20211;-70
2022/02/10 03:14:19;;;;;;;7.35;4.13;;;-0.80;99.90;;;;;;5087904;28;20179;-70
2022/02/10 04:01:35;;;;;;;2.67;1.85;;;0.80;99.90;;;;;;5072687;28;20219;-70
2022/02/10 04:04:09;;;;;;;4.72;2.17;;;0.90;99.90;;;;;;5072293;28;20196;-70
2022/02/10 04:07:32;;;;;;;2.17;1.92;;;1.00;99.90;;;;;;5072446;28;20179;-71
2022/02/10 04:10:04;;;;;;;1.77;1.38;;;1.00;99.90;;;;;;5075083;28;20211;-71
2022/02/10 04:15:41;;;;;;;3.95;2.05;;;0.90;99.90;;;;;;5072518;28;20159;-71
2022/02/10 05:31:35;;;;;;;2.75;2.03;;;-1.20;99.90;;;;;;5070735;28;20275;-70
2022/02/10 05:37:52;;;;;;;4.57;3.28;;;-1.30;99.90;;;;;;5070693;28;20284;-70
2022/02/10 05:40:47;;;;;;;6.03;2.30;;;-1.20;99.90;;;;;;5070735;28;20152;-70
2022/02/10 05:46:29;;;;;;;3.05;2.42;;;-1.30;99.90;;;;;;5070671;28;20222;-70
2022/02/10 05:55:50;;;;;;;5.75;2.97;;;-1.50;99.90;;;;;;5070227;28;20161;-70
2022/02/10 05:58:54;;;;;;;7.93;2.72;;;-1.60;99.90;;;;;;5070228;28;20252;-70
2022/02/10 06:53:35;;;;;;;7.72;3.38;;;0.60;99.90;;;;;;5069300;28;20176;-70
2022/02/10 07:59:43;;;;;;;7.82;3.10;;;4.10;99.90;;;;;;5072415;28;20191;-72
2022/02/10 08:57:28;;;;;;;5.10;3.10;;;15.20;99.90;;;;;;5071608;28;20163;-71
2022/02/10 09:05:08;;;;;;;9.05;2.63;;;15.80;99.90;;;;;;5077990;28;20211;-70
2022/02/10 09:20:54;;;;;;;19.08;3.88;;;17.80;97.10;;;;;;5090475;28;20187;-72
2022/02/10 09:27:17;;;;;;;18.48;4.07;;;17.50;96.60;;;;;;5090978;28;20159;-72
2022/02/10 10:01:12;;;;;;;7.35;2.97;;;16.80;99.70;;;;;;5089850;28;20176;-71
2022/02/10 10:03:43;;;;;;;8.55;3.88;;;17.20;99.00;;;;;;5090110;28;20174;-71
2022/02/10 10:14:37;;;;;;;6.50;2.92;;;16.60;99.30;;;;;;5089937;28;20162;-71
2022/02/10 10:26:07;;;;;;;7.32;3.55;;;17.80;97.70;;;;;;5089757;28;20567;-73
2022/02/10 10:53:38;;;;;;;10.45;4.70;;;17.60;98.00;;;;;;5086820;28;20163;-72
2022/02/10 10:59:01;;;;;;;10.00;4.18;;;16.90;98.40;;;;;;5080082;28;20192;-72
2022/02/10 11:38:36;;;;;;;6.25;3.42;;;15.60;99.90;;;;;;5088522;28;20187;-72
2022/02/10 12:00:45;;;;;;;7.95;3.88;;;16.20;99.90;;;;;;5088452;28;20171;-71
2022/02/10 14:09:22;;;;;;;4.80;2.55;;;11.60;99.90;;;;;;5089947;28;20167;-70
2022/02/10 14:12:38;;;;;;;5.07;2.97;;;11.50;99.90;;;;;;5089894;28;20194;-71
2022/02/10 14:17:11;;;;;;;4.38;2.78;;;11.50;99.90;;;;;;5089840;28;20192;-71
2022/02/10 14:19:41;;;;;;;12.50;2.88;;;11.60;99.90;;;;;;5089969;28;20153;-70
2022/02/10 14:27:23;;;;;;;6.13;2.78;;;11.50;99.90;;;;;;5089725;28;20199;-71
2022/02/10 14:29:49;;;;;;;9.52;3.70;;;11.60;99.90;;;;;;5089628;28;20190;-70
2022/02/10 14:32:18;;;;;;;4.65;2.85;;;11.60;99.90;;;;;;5089742;28;20250;-71
2022/02/10 14:34:50;;;;;;;7.07;3.20;;;11.50;99.90;;;;;;5089813;28;20200;-71
2022/02/10 14:39:58;;;;;;;7.93;3.38;;;11.40;99.90;;;;;;5089411;28;20152;-70
2022/02/10 15:18:06;;;;;;;10.23;4.25;;;10.70;99.90;;;;;;5068873;28;20195;-71
2022/02/10 15:30:00;;;;;;;12.07;4.45;;;10.40;99.90;;;;;;5068543;28;20164;-71
2022/02/10 15:54:20;;;;;;;12.93;5.25;;;9.50;99.90;;;;;;5068812;28;20219;-71
2022/02/10 16:17:46;;;;;;;11.85;4.88;;;7.20;99.90;;;;;;5092401;28;20183;-71
2022/02/10 16:20:18;;;;;;;9.57;4.57;;;7.00;99.90;;;;;;5092055;28;20217;-71
2022/02/10 16:22:59;;;;;;;20.85;5.57;;;7.00;99.90;;;;;;5092196;28;20202;-71
2022/02/10 16:25:27;;;;;;;12.60;6.00;;;6.80;99.90;;;;;;5090599;28;20191;-71
2022/02/10 16:28:07;;;;;;;14.80;5.15;;;6.70;99.90;;;;;;5091670;28;20172;-71
2022/02/10 16:30:33;;;;;;;19.88;6.47;;;6.60;99.90;;;;;;5091732;28;20207;-71
2022/02/10 16:32:59;;;;;;;13.82;6.10;;;6.40;99.90;;;;;;5091892;28;20224;-71
2022/02/10 16:35:25;;;;;;;12.93;6.50;;;6.40;99.90;;;;;;5091835;28;20191;-71
2022/02/10 16:37:51;;;;;;;12.45;5.68;;;6.30;99.90;;;;;;5091922;28;20191;-70
2022/02/10 16:40:17;;;;;;;9.27;5.32;;;6.30;99.90;;;;;;5090207;28;20180;-70
2022/02/10 16:42:45;;;;;;;10.77;6.60;;;6.10;99.90;;;;;;5091867;28;20157;-71
2022/02/10 16:45:11;;;;;;;12.60;6.55;;;6.00;99.90;;;;;;5091626;28;20184;-71
2022/02/10 16:47:37;;;;;;;15.48;6.22;;;5.80;99.90;;;;;;5091586;28;20192;-71
2022/02/10 16:50:04;;;;;;;14.73;6.20;;;5.70;99.90;;;;;;5091422;28;20168;-71
2022/02/10 16:52:38;;;;;;;14.52;5.35;;;5.60;99.90;;;;;;5091711;28;20153;-71
2022/02/10 16:55:20;;;;;;;11.95;5.82;;;5.40;99.90;;;;;;5091091;28;20203;-71
2022/02/10 16:58:57;;;;;;;9.35;5.63;;;5.20;99.90;;;;;;5091564;28;20167;-71
2022/02/10 17:25:12;;;;;;;19.63;7.47;;;5.00;99.90;;;;;;5070950;28;20201;-71
2022/02/10 17:27:42;;;;;;;15.77;6.32;;;5.10;99.90;;;;;;5070821;28;20168;-71
2022/02/10 17:46:37;;;;;;;11.13;5.20;;;5.90;99.90;;;;;;5070770;28;20171;-71
2022/02/10 17:54:23;;;;;;;8.13;4.97;;;5.60;99.90;;;;;;5070404;28;20197;-71
2022/02/10 17:56:49;;;;;;;8.63;5.40;;;5.50;99.90;;;;;;5070324;28;20244;-70
2022/02/10 17:59:17;;;;;;;20.92;5.50;;;5.40;99.90;;;;;;5070484;28;20169;-71
2022/02/10 18:01:44;;;;;;;11.95;5.80;;;5.20;99.90;;;;;;5072821;28;20221;-71
2022/02/10 18:04:11;;;;;;;14.63;6.22;;;5.10;99.90;;;;;;5090231;28;20202;-71
2022/02/10 18:06:48;;;;;;;20.88;6.95;;;5.10;99.90;;;;;;5090280;28;20160;-71
2022/02/10 18:14:48;;;;;;;13.38;5.90;;;4.90;99.90;;;;;;5086105;28;20180;-70
2022/02/10 18:17:25;;;;;;;15.32;5.88;;;4.90;99.90;;;;;;5089460;28;20180;-70
2022/02/10 18:19:55;;;;;;;10.13;4.95;;;5.10;99.90;;;;;;5089815;28;20191;-70
2022/02/10 18:25:14;;;;;;;9.25;4.68;;;5.10;99.90;;;;;;5089891;28;20151;-70
2022/02/10 18:30:37;;;;;;;9.60;5.50;;;4.40;99.90;;;;;;5086793;28;21311;-71
2022/02/10 19:06:08;;;;;;;10.70;5.22;;;3.60;99.90;;;;;;5088631;28;20170;-71
2022/02/10 19:08:58;;;;;;;12.75;5.30;;;3.70;99.90;;;;;;5089022;28;20176;-70
2022/02/10 19:11:24;;;;;;;11.45;5.10;;;3.80;99.90;;;;;;5088893;28;20215;-70
2022/02/10 19:13:53;;;;;;;8.00;4.85;;;3.90;99.90;;;;;;5087758;28;20197;-70
2022/02/10 19:16:20;;;;;;;14.18;5.60;;;3.90;99.90;;;;;;5088421;28;20243;-70
2022/02/10 19:18:46;;;;;;;11.00;4.93;;;4.00;99.90;;;;;;5089124;28;20159;-70
2022/02/10 19:21:11;;;;;;;9.57;5.03;;;4.10;99.90;;;;;;5088735;28;20191;-70
2022/02/10 19:23:37;;;;;;;8.98;5.03;;;4.20;99.90;;;;;;5088598;28;20163;-71
2022/02/10 19:26:03;;;;;;;6.43;4.20;;;4.20;99.90;;;;;;5088878;28;20166;-71
2022/02/10 19:28:29;;;;;;;13.32;4.82;;;4.10;99.90;;;;;;5087938;28;20160;-72
2022/02/10 19:30:56;;;;;;;12.38;5.40;;;4.20;99.90;;;;;;5088664;28;20199;-70
2022/02/10 19:33:22;;;;;;;8.45;4.95;;;4.20;99.90;;;;;;5087663;28;20192;-70
2022/02/10 19:35:51;;;;;;;9.55;4.78;;;4.20;99.90;;;;;;5088760;28;20170;-71
2022/02/10 19:38:21;;;;;;;13.85;4.70;;;4.10;99.90;;;;;;5088276;28;20152;-70
2022/02/10 19:40:54;;;;;;;9.77;5.50;;;3.90;99.90;;;;;;5088672;28;20187;-70
2022/02/10 19:43:21;;;;;;;15.30;6.22;;;3.80;99.90;;;;;;5088561;28;20191;-70
2022/02/10 19:45:49;;;;;;;10.68;5.35;;;3.80;99.90;;;;;;5088759;28;20616;-73
2022/02/10 19:48:16;;;;;;;5.60;4.57;;;3.70;99.90;;;;;;5088202;28;20159;-70
2022/02/10 19:50:43;;;;;;;8.25;5.13;;;3.60;99.90;;;;;;5087220;28;20233;-70
2022/02/10 19:53:12;;;;;;;9.55;4.53;;;3.70;99.90;;;;;;5088694;28;20178;-70
2022/02/10 19:55:42;;;;;;;8.00;5.10;;;3.90;99.90;;;;;;5088114;28;20176;-70
2022/02/10 19:58:18;;;;;;;10.98;5.25;;;3.90;99.90;;;;;;5088089;28;20160;-70
2022/02/10 20:00:46;;;;;;;10.68;4.38;;;3.80;99.90;;;;;;5088422;28;20241;-70
2022/02/10 20:03:22;;;;;;;5.82;4.57;;;3.90;99.90;;;;;;5073072;28;20224;-70
2022/02/10 20:05:51;;;;;;;9.40;4.63;;;3.90;99.90;;;;;;5067123;28;20181;-69
2022/02/10 20:08:20;;;;;;;12.88;4.57;;;3.70;99.90;;;;;;5067900;28;20239;-70
2022/02/10 20:10:51;;;;;;;7.05;4.60;;;3.70;99.90;;;;;;5067917;28;20216;-70
2022/02/10 20:13:17;;;;;;;6.95;3.97;;;3.70;99.90;;;;;;5068411;28;20149;-70
2022/02/10 20:15:45;;;;;;;26.35;11.57;;;3.70;99.90;;;;;;5068352;28;20177;-70
2022/02/10 20:18:13;;;;;;;33.47;16.40;;;3.60;99.90;;;;;;5068340;28;20184;-70
2022/02/10 20:20:41;;;;;;;22.48;11.15;;;3.50;99.90;;;;;;5067490;28;20279;-70
2022/02/10 20:23:09;;;;;;;11.85;6.82;;;3.50;99.90;;;;;;5068219;28;20153;-70
2022/02/10 20:25:36;;;;;;;13.15;6.28;;;3.40;99.90;;;;;;5068281;28;20183;-70
2022/02/10 20:28:02;;;;;;;10.70;5.65;;;3.50;99.90;;;;;;5068117;28;20191;-70
2022/02/10 20:30:31;;;;;;;12.73;4.93;;;3.40;99.90;;;;;;5067398;28;20719;-70
2022/02/10 20:32:57;;;;;;;11.93;5.78;;;3.40;99.90;;;;;;5068005;28;20180;-70
2022/02/10 20:35:23;;;;;;;9.70;5.10;;;3.50;99.90;;;;;;5068170;28;20153;-70
2022/02/10 20:37:56;;;;;;;10.88;4.05;;;3.50;99.90;;;;;;5068025;28;20161;-70
2022/02/10 20:40:22;;;;;;;8.30;4.20;;;3.50;99.90;;;;;;5067718;28;20192;-70
2022/02/10 20:42:48;;;;;;;11.52;4.40;;;3.60;99.90;;;;;;5071947;28;20206;-71
2022/02/10 20:45:14;;;;;;;8.80;4.78;;;3.50;99.90;;;;;;5077224;28;20173;-70
2022/02/10 20:47:40;;;;;;;9.20;4.35;;;3.40;99.90;;;;;;5071754;28;20160;-70
2022/02/10 20:50:06;;;;;;;12.70;4.50;;;3.40;99.90;;;;;;5071471;28;20149;-71
2022/02/10 20:52:32;;;;;;;7.05;4.18;;;3.40;99.90;;;;;;5071062;28;20230;-71
2022/02/10 20:54:59;;;;;;;6.43;3.78;;;3.50;99.90;;;;;;5071539;28;20615;-71
2022/02/10 20:57:27;;;;;;;7.63;4.22;;;3.50;99.90;;;;;;5088449;28;20232;-71
2022/02/10 20:59:53;;;;;;;16.63;4.38;;;3.50;99.90;;;;;;5090153;28;20194;-71
2022/02/10 21:02:29;;;;;;;8.52;3.88;;;3.60;99.90;;;;;;5082735;28;20213;-71
2022/02/10 21:12:21;;;;;;;5.03;3.58;;;3.60;99.90;;;;;;5090714;28;20211;-71
2022/02/10 21:14:48;;;;;;;6.15;3.50;;;3.50;99.90;;;;;;5091354;28;20152;-71
2022/02/10 21:17:20;;;;;;;6.65;4.10;;;3.50;99.90;;;;;;5091201;28;20144;-72
2022/02/10 21:19:46;;;;;;;6.95;3.92;;;3.60;99.90;;;;;;5081190;28;20283;-72
2022/02/10 21:22:18;;;;;;;4.03;3.33;;;3.50;99.90;;;;;;5070339;28;20197;-71
2022/02/10 21:24:55;;;;;;;4.95;3.40;;;3.50;99.90;;;;;;5071261;28;20160;-71
2022/02/10 21:30:00;;;;;;;6.68;3.55;;;3.10;99.90;;;;;;5071044;28;20188;-71
2022/02/10 21:32:29;;;;;;;12.23;3.97;;;2.90;99.90;;;;;;5070240;28;20200;-71
2022/02/10 21:35:23;;;;;;;9.32;3.63;;;3.00;99.90;;;;;;5070999;28;20184;-71
2022/02/10 21:54:33;;;;;;;9.13;4.47;;;2.30;99.90;;;;;;5069765;28;20234;-71
2022/02/10 22:00:27;;;;;;;5.53;4.20;;;2.40;99.90;;;;;;5090567;28;20227;-71
2022/02/10 22:21:01;;;;;;;10.18;4.53;;;3.10;99.90;;;;;;5070190;28;20157;-71
2022/02/10 22:23:28;;;;;;;7.97;3.92;;;3.00;99.90;;;;;;5070060;28;20196;-71
2022/02/10 22:26:04;;;;;;;13.10;5.13;;;2.70;99.90;;;;;;5069378;28;20157;-70
2022/02/10 22:28:42;;;;;;;8.18;5.03;;;2.40;99.90;;;;;;5068578;28;20172;-71
2022/02/10 22:31:48;;;;;;;11.18;4.03;;;2.20;99.90;;;;;;5069577;28;20204;-70
2022/02/10 22:34:11;;;;;;;9.35;4.38;;;2.00;99.90;;;;;;5069181;28;20254;-70
2022/02/10 22:36:41;;;;;;;11.93;4.22;;;2.10;99.90;;;;;;5069143;28;20209;-70
2022/02/10 22:39:08;;;;;;;9.27;3.80;;;2.00;99.90;;;;;;5069616;28;20164;-70
2022/02/10 22:41:34;;;;;;;15.80;4.60;;;1.90;99.90;;;;;;5069590;28;20188;-70
2022/02/10 22:44:03;;;;;;;7.45;3.78;;;1.70;99.90;;;;;;5069577;28;20201;-70
2022/02/10 22:46:30;;;;;;;11.05;4.63;;;1.70;99.90;;;;;;5069059;28;20195;-70
2022/02/10 22:48:57;;;;;;;7.18;3.15;;;1.50;99.90;;;;;;5069693;28;20258;-71
2022/02/10 22:51:27;;;;;;;12.85;5.35;;;1.40;99.90;;;;;;5068115;28;20189;-71
2022/02/10 22:53:53;;;;;;;10.70;4.75;;;1.30;99.90;;;;;;5069460;28;20172;-71
2022/02/10 22:56:24;;;;;;;10.70;5.50;;;1.20;99.90;;;;;;5068565;28;20184;-71
2022/02/10 22:58:54;;;;;;;12.00;5.50;;;1.10;99.90;;;;;;5067038;28;20193;-71
2022/02/10 23:01:20;;;;;;;13.65;5.93;;;0.90;99.90;;;;;;5066948;28;20165;-71
2022/02/10 23:03:46;;;;;;;8.77;5.35;;;0.70;99.90;;;;;;5068066;28;20171;-72
2022/02/10 23:06:14;;;;;;;16.23;6.28;;;0.60;99.90;;;;;;5069274;28;20161;-71
2022/02/10 23:08:41;;;;;;;11.50;6.22;;;0.60;99.90;;;;;;5068406;28;20188;-71
2022/02/10 23:11:10;;;;;;;7.75;5.28;;;0.50;99.90;;;;;;5070756;28;20200;-71
2022/02/10 23:13:38;;;;;;;12.57;5.80;;;0.40;99.90;;;;;;5077841;28;20215;-71
2022/02/10 23:16:06;;;;;;;10.90;5.80;;;0.30;99.90;;;;;;5079303;28;20555;-71
2022/02/10 23:18:34;;;;;;;12.55;6.13;;;0.20;99.90;;;;;;5088527;28;20199;-71
2022/02/10 23:21:03;;;;;;;10.93;5.65;;;0.20;99.90;;;;;;5072579;28;20184;-71
2022/02/10 23:23:30;;;;;;;10.27;5.35;;;0.20;99.90;;;;;;5069104;28;20152;-71
2022/02/10 23:25:59;;;;;;;11.43;5.55;;;0.10;99.90;;;;;;5067833;28;20165;-71
2022/02/10 23:28:31;;;;;;;14.35;6.32;;;0.00;99.90;;;;;;5074685;28;20214;-71
2022/02/10 23:30:59;;;;;;;9.73;5.07;;;0.00;99.90;;;;;;5088929;28;20187;-71
2022/02/10 23:33:32;;;;;;;10.60;5.88;;;0.00;99.90;;;;;;5089010;28;20273;-71
2022/02/10 23:43:41;;;;;;;11.32;5.57;;;-0.20;99.90;;;;;;5089046;28;20156;-71
2022/02/10 23:46:07;;;;;;;14.93;6.28;;;-0.20;99.90;;;;;;5077012;28;20207;-71
2022/02/10 23:48:34;;;;;;;11.63;6.07;;;-0.20;99.90;;;;;;5068762;28;20513;-71
2022/02/10 23:51:00;;;;;;;13.75;7.38;;;-0.10;99.90;;;;;;5068715;28;20189;-71
2022/02/10 23:53:27;;;;;;;8.70;6.05;;;-0.10;99.90;;;;;;5068876;28;20255;-71
2022/02/10 23:55:54;;;;;;;9.90;5.57;;;-0.10;99.90;;;;;;5068833;28;20660;-71
